createdAt,value
2019-06-26T00:00:37.913Z,8.53
2019-06-26T00:01:42.080Z,7.87
2019-06-26T00:02:46.887Z,8.13
2019-06-26T00:03:51.053Z,9.08
2019-06-26T00:04:55.692Z,8.70
2019-06-26T00:05:59.836Z,9.03
2019-06-26T00:07:04.481Z,8.53
2019-06-26T00:08:08.549Z,8.70
2019-06-26T00:09:13.269Z,8.45
2019-06-26T00:10:18.286Z,8.40
2019-06-26T00:11:22.996Z,8.20
2019-06-26T00:12:27.067Z,7.60
2019-06-26T00:13:31.828Z,9.83
2019-06-26T00:14:38.688Z,8.23
2019-06-26T00:15:42.231Z,7.83
2019-06-26T00:16:49.013Z,9.88
2019-06-26T00:17:53.681Z,8.18
2019-06-26T00:18:57.727Z,12.63
2019-06-26T00:20:02.391Z,7.92
2019-06-26T00:21:06.465Z,8.00
2019-06-26T00:22:11.183Z,7.50
2019-06-26T00:23:15.455Z,8.28
2019-06-26T00:24:20.085Z,7.97
2019-06-26T00:25:24.191Z,7.85
2019-06-26T00:26:28.841Z,8.50
2019-06-26T00:27:32.890Z,7.47
2019-06-26T00:28:37.523Z,7.85
2019-06-26T00:29:41.595Z,7.40
2019-06-26T00:30:46.297Z,9.73
2019-06-26T00:31:50.426Z,8.13
2019-06-26T00:32:55.166Z,7.62
2019-06-26T00:33:59.327Z,8.20
2019-06-26T00:35:04.376Z,8.03
2019-06-26T00:36:08.480Z,9.75
2019-06-26T00:37:13.115Z,9.43
2019-06-26T00:38:17.196Z,11.33
2019-06-26T00:39:21.834Z,7.65
2019-06-26T00:40:25.903Z,8.60
2019-06-26T00:41:30.584Z,7.80
2019-06-26T00:42:34.726Z,8.00
2019-06-26T00:43:42.609Z,8.03
2019-06-26T00:44:45.120Z,9.38
2019-06-26T00:45:49.777Z,8.18
2019-06-26T00:46:53.916Z,7.92
2019-06-26T00:47:58.598Z,7.75
2019-06-26T00:49:02.726Z,8.15
2019-06-26T00:50:09.007Z,8.63
2019-06-26T00:51:13.102Z,8.90
2019-06-26T00:52:17.801Z,7.97
2019-06-26T00:53:21.854Z,7.85
2019-06-26T00:54:26.515Z,7.65
2019-06-26T00:55:30.669Z,8.85
2019-06-26T00:56:35.895Z,8.03
2019-06-26T00:57:39.955Z,7.72
2019-06-26T00:58:44.732Z,7.65
2019-06-26T00:59:48.837Z,10.25
2019-06-26T01:00:53.658Z,7.17
2019-06-26T01:01:57.779Z,7.78
2019-06-26T01:03:02.433Z,8.35
2019-06-26T01:04:11.093Z,8.20
2019-06-26T01:05:15.805Z,8.03
2019-06-26T01:06:37.657Z,9.35
2019-06-26T01:07:41.773Z,7.53
2019-06-26T01:08:46.413Z,8.90
2019-06-26T01:09:50.471Z,9.40
2019-06-26T01:10:55.155Z,8.00
2019-06-26T01:11:59.214Z,8.85
2019-06-26T01:13:03.939Z,7.37
2019-06-26T01:14:08.075Z,9.55
2019-06-26T01:15:13.133Z,8.45
2019-06-26T01:16:17.915Z,7.65
2019-06-26T01:17:22.543Z,7.80
2019-06-26T01:18:26.599Z,7.85
2019-06-26T01:19:31.319Z,7.55
2019-06-26T01:20:35.484Z,7.17
2019-06-26T01:21:40.175Z,7.60
2019-06-26T01:22:44.235Z,7.50
2019-06-26T01:23:48.891Z,7.87
2019-06-26T01:24:53.027Z,7.78
2019-06-26T01:25:57.657Z,8.03
2019-06-26T01:27:01.745Z,10.53
2019-06-26T01:28:06.495Z,8.28
2019-06-26T01:29:10.635Z,7.62
2019-06-26T01:30:15.593Z,8.03
2019-06-26T01:31:19.789Z,7.97
2019-06-26T01:32:24.431Z,7.75
2019-06-26T01:33:28.535Z,8.23
2019-06-26T01:34:33.169Z,9.90
2019-06-26T01:35:37.231Z,7.50
2019-06-26T01:36:41.950Z,12.30
2019-06-26T01:37:46.021Z,7.70
2019-06-26T01:38:50.672Z,8.85
2019-06-26T01:39:54.722Z,7.53
2019-06-26T01:40:59.366Z,8.23
2019-06-26T01:42:03.529Z,8.40
2019-06-26T01:43:08.177Z,7.92
2019-06-26T01:44:15.204Z,7.92
2019-06-26T01:45:18.672Z,10.45
2019-06-26T01:46:22.936Z,9.60
2019-06-26T01:47:27.764Z,8.33
2019-06-26T01:48:31.819Z,7.92
2019-06-26T01:49:36.487Z,8.35
2019-06-26T01:50:40.593Z,9.25
2019-06-26T01:51:45.241Z,7.78
2019-06-26T01:52:49.307Z,8.60
2019-06-26T01:53:53.947Z,9.03
2019-06-26T01:54:58.059Z,7.80
2019-06-26T01:56:02.715Z,8.13
2019-06-26T01:57:09.543Z,8.63
2019-06-26T01:58:14.177Z,8.13
2019-06-26T01:59:18.286Z,9.58
2019-06-26T02:00:23.370Z,10.18
2019-06-26T02:01:29.223Z,8.13
2019-06-26T02:02:33.865Z,8.85
2019-06-26T02:03:37.941Z,8.53
2019-06-26T02:04:42.585Z,8.35
2019-06-26T02:05:46.659Z,8.73
2019-06-26T02:06:51.304Z,10.20
2019-06-26T02:07:55.378Z,10.40
2019-06-26T02:09:00.024Z,8.58
2019-06-26T02:10:05.834Z,9.98
2019-06-26T02:11:10.480Z,11.57
2019-06-26T02:12:14.607Z,9.03
2019-06-26T02:13:19.235Z,8.95
2019-06-26T02:14:31.157Z,8.83
2019-06-26T02:15:32.581Z,8.93
2019-06-26T02:16:36.700Z,9.15
2019-06-26T02:17:41.332Z,8.40
2019-06-26T02:18:49.814Z,8.48
2019-06-26T02:19:54.431Z,10.40
2019-06-26T02:20:58.688Z,8.43
2019-06-26T02:22:03.287Z,9.53
2019-06-26T02:23:07.342Z,8.33
2019-06-26T02:24:12.062Z,8.53
2019-06-26T02:25:16.411Z,8.30
2019-06-26T02:26:21.137Z,10.18
2019-06-26T02:27:25.236Z,8.18
2019-06-26T02:28:30.033Z,8.43
2019-06-26T02:29:34.213Z,8.63
2019-06-26T02:30:38.850Z,8.33
2019-06-26T02:31:42.928Z,9.98
2019-06-26T02:32:47.572Z,8.80
2019-06-26T02:33:51.678Z,9.03
2019-06-26T02:34:56.366Z,8.58
2019-06-26T02:36:00.478Z,9.48
2019-06-26T02:37:05.302Z,10.43
2019-06-26T02:38:09.376Z,8.48
2019-06-26T02:39:14.010Z,8.98
2019-06-26T02:40:19.502Z,8.78
2019-06-26T02:41:24.206Z,9.23
2019-06-26T02:42:28.287Z,9.10
2019-06-26T02:43:32.981Z,9.70
2019-06-26T02:44:52.243Z,9.10
2019-06-26T02:45:43.344Z,9.13
2019-06-26T02:46:47.483Z,11.03
2019-06-26T02:47:52.199Z,9.90
2019-06-26T02:48:56.275Z,9.85
2019-06-26T02:50:00.930Z,9.85
2019-06-26T02:51:05.041Z,10.18
2019-06-26T02:52:09.757Z,10.03
2019-06-26T02:53:13.809Z,9.78
2019-06-26T02:54:18.525Z,11.00
2019-06-26T02:55:22.583Z,9.43
2019-06-26T02:56:27.249Z,10.05
2019-06-26T02:57:31.411Z,9.50
2019-06-26T02:58:36.160Z,11.00
2019-06-26T02:59:40.265Z,9.85
2019-06-26T03:00:44.984Z,9.75
2019-06-26T03:01:49.035Z,9.50
2019-06-26T03:02:53.672Z,9.33
2019-06-26T03:03:57.766Z,9.23
2019-06-26T03:05:02.620Z,9.00
2019-06-26T03:06:06.833Z,8.83
2019-06-26T03:07:11.505Z,8.58
2019-06-26T03:08:17.088Z,9.60
2019-06-26T03:09:21.729Z,9.78
2019-06-26T03:10:25.795Z,9.30
2019-06-26T03:11:30.447Z,10.72
2019-06-26T03:12:34.728Z,8.75
2019-06-26T03:13:39.432Z,9.53
2019-06-26T03:14:43.554Z,9.48
2019-06-26T03:15:50.514Z,9.38
2019-06-26T03:16:53.972Z,9.08
2019-06-26T03:17:58.623Z,10.05
2019-06-26T03:19:02.692Z,10.00
2019-06-26T03:20:07.816Z,9.78
2019-06-26T03:21:11.880Z,9.35
2019-06-26T03:22:16.596Z,9.95
2019-06-26T03:23:20.670Z,9.90
2019-06-26T03:24:25.337Z,9.95
2019-06-26T03:25:29.508Z,9.98
2019-06-26T03:26:34.112Z,10.45
2019-06-26T03:27:38.188Z,9.80
2019-06-26T03:28:42.826Z,9.10
2019-06-26T03:29:47.057Z,9.63
2019-06-26T03:30:51.683Z,9.25
2019-06-26T03:31:55.745Z,9.50
2019-06-26T03:33:00.468Z,9.25
2019-06-26T03:34:04.653Z,9.18
2019-06-26T03:35:09.394Z,11.40
2019-06-26T03:36:13.449Z,9.60
2019-06-26T03:37:18.088Z,9.48
2019-06-26T03:38:22.152Z,10.40
2019-06-26T03:39:26.805Z,11.00
2019-06-26T03:40:30.899Z,10.48
2019-06-26T03:41:35.537Z,9.88
2019-06-26T03:42:39.628Z,10.28
2019-06-26T03:43:44.276Z,10.03
2019-06-26T03:44:48.464Z,10.13
2019-06-26T03:45:53.119Z,10.38
2019-06-26T03:46:57.178Z,10.13
2019-06-26T03:48:01.857Z,10.30
2019-06-26T03:49:05.929Z,10.55
2019-06-26T03:50:10.646Z,10.23
2019-06-26T03:51:14.702Z,10.20
2019-06-26T03:52:19.409Z,10.15
2019-06-26T03:53:23.490Z,10.08
2019-06-26T03:54:28.133Z,9.23
2019-06-26T03:55:32.294Z,10.53
2019-06-26T03:56:37.010Z,10.10
2019-06-26T03:57:41.095Z,10.00
2019-06-26T03:58:45.685Z,10.58
2019-06-26T03:59:49.916Z,9.65
2019-06-26T04:00:54.593Z,10.00
2019-06-26T04:01:58.668Z,9.93
2019-06-26T04:03:03.340Z,10.50
2019-06-26T04:04:07.470Z,10.60
2019-06-26T04:05:12.442Z,10.08
2019-06-26T04:06:16.508Z,9.53
2019-06-26T04:07:21.245Z,10.30
2019-06-26T04:08:25.469Z,10.98
2019-06-26T04:09:30.249Z,10.78
2019-06-26T04:10:35.604Z,11.68
2019-06-26T04:11:40.244Z,11.60
2019-06-26T04:12:44.349Z,10.75
2019-06-26T04:13:49.007Z,12.73
2019-06-26T04:14:53.077Z,10.58
2019-06-26T04:15:57.850Z,12.33
2019-06-26T04:17:02.093Z,10.43
2019-06-26T04:18:06.849Z,12.33
2019-06-26T04:19:10.958Z,11.00
2019-06-26T04:20:15.845Z,11.03
2019-06-26T04:21:19.900Z,11.25
2019-06-26T04:22:24.596Z,10.25
2019-06-26T04:23:28.660Z,10.75
2019-06-26T04:24:33.316Z,11.55
2019-06-26T04:25:38.416Z,10.75
2019-06-26T04:26:43.243Z,11.15
2019-06-26T04:27:47.292Z,10.80
2019-06-26T04:28:51.954Z,10.00
2019-06-26T04:29:56.050Z,11.12
2019-06-26T04:31:00.724Z,11.43
2019-06-26T04:32:04.864Z,11.25
2019-06-26T04:33:09.517Z,11.35
2019-06-26T04:34:13.592Z,11.78
2019-06-26T04:35:18.384Z,11.33
2019-06-26T04:36:22.508Z,11.33
2019-06-26T04:37:27.166Z,10.68
2019-06-26T04:38:31.226Z,10.23
2019-06-26T04:39:35.852Z,9.83
2019-06-26T04:40:39.946Z,10.60
2019-06-26T04:41:44.622Z,10.40
2019-06-26T04:42:48.695Z,10.20
2019-06-26T04:43:53.328Z,10.88
2019-06-26T04:44:57.470Z,11.00
2019-06-26T04:46:02.153Z,10.58
2019-06-26T04:47:06.232Z,10.70
2019-06-26T04:48:10.948Z,11.08
2019-06-26T04:49:15.020Z,11.08
2019-06-26T04:50:20.566Z,11.90
2019-06-26T04:51:24.635Z,11.65
2019-06-26T04:52:30.844Z,11.20
2019-06-26T04:53:35.000Z,13.85
2019-06-26T04:54:39.646Z,11.35
2019-06-26T04:55:43.916Z,11.83
2019-06-26T04:56:48.544Z,10.90
2019-06-26T04:57:52.617Z,11.03
2019-06-26T04:58:57.344Z,11.25
2019-06-26T05:00:01.433Z,11.20
2019-06-26T05:01:06.234Z,10.95
2019-06-26T05:02:10.440Z,11.70
2019-06-26T05:03:15.162Z,11.30
2019-06-26T05:04:19.233Z,11.38
2019-06-26T05:05:38.619Z,10.85
2019-06-26T05:06:29.614Z,14.03
2019-06-26T05:07:34.253Z,11.38
2019-06-26T05:08:38.322Z,12.53
2019-06-26T05:09:42.990Z,12.40
2019-06-26T05:10:47.064Z,12.25
2019-06-26T05:11:51.736Z,12.00
2019-06-26T05:12:55.828Z,12.28
2019-06-26T05:14:00.478Z,11.70
2019-06-26T05:15:06.784Z,11.65
2019-06-26T05:16:15.729Z,12.43
2019-06-26T05:17:17.136Z,11.88
2019-06-26T05:18:21.891Z,12.28
2019-06-26T05:19:26.108Z,12.80
2019-06-26T05:20:30.749Z,14.33
2019-06-26T05:21:34.828Z,14.78
2019-06-26T05:22:39.467Z,11.70
2019-06-26T05:23:43.579Z,12.95
2019-06-26T05:24:48.209Z,13.00
2019-06-26T05:25:52.295Z,12.80
2019-06-26T05:26:57.880Z,12.53
2019-06-26T05:28:08.291Z,12.95
2019-06-26T05:29:11.619Z,11.75
2019-06-26T05:30:17.120Z,12.73
2019-06-26T05:31:23.611Z,13.05
2019-06-26T05:32:27.836Z,14.05
2019-06-26T05:33:32.658Z,13.22
2019-06-26T05:34:36.786Z,13.35
2019-06-26T05:35:41.511Z,13.68
2019-06-26T05:36:45.608Z,13.80
2019-06-26T05:37:50.264Z,14.55
2019-06-26T05:38:54.430Z,13.78
2019-06-26T05:39:59.232Z,14.40
2019-06-26T05:41:03.391Z,14.18
2019-06-26T05:42:08.384Z,14.20
2019-06-26T05:43:12.668Z,13.90
2019-06-26T05:44:17.491Z,13.75
2019-06-26T05:45:22.295Z,14.23
2019-06-26T05:46:31.374Z,14.43
2019-06-26T05:47:32.760Z,14.35
2019-06-26T05:48:37.410Z,14.47
2019-06-26T05:49:44.242Z,14.07
2019-06-26T05:50:48.907Z,15.05
2019-06-26T05:51:53.140Z,15.25
2019-06-26T05:52:57.876Z,14.23
2019-06-26T05:54:02.017Z,14.43
2019-06-26T05:55:07.341Z,14.78
2019-06-26T05:56:11.550Z,14.00
2019-06-26T05:57:16.188Z,14.30
2019-06-26T05:58:20.400Z,15.25
2019-06-26T05:59:25.072Z,14.47
2019-06-26T06:00:29.267Z,14.60
2019-06-26T06:01:33.982Z,14.53
2019-06-26T06:02:38.218Z,14.28
2019-06-26T06:03:42.910Z,15.50
2019-06-26T06:04:47.093Z,14.20
2019-06-26T06:05:52.966Z,14.13
2019-06-26T06:06:57.221Z,14.20
2019-06-26T06:08:02.057Z,15.75
2019-06-26T06:09:08.227Z,17.35
2019-06-26T06:10:13.434Z,14.78
2019-06-26T06:11:18.502Z,14.70
2019-06-26T06:12:26.520Z,17.00
2019-06-26T06:13:31.286Z,14.85
2019-06-26T06:14:36.228Z,14.83
2019-06-26T06:15:40.660Z,14.90
2019-06-26T06:16:48.090Z,14.40
2019-06-26T06:17:53.974Z,15.03
2019-06-26T06:18:58.422Z,15.15
2019-06-26T06:20:06.303Z,15.03
2019-06-26T06:21:10.977Z,17.15
2019-06-26T06:22:15.138Z,17.17
2019-06-26T06:23:19.880Z,17.27
2019-06-26T06:24:26.099Z,16.75
2019-06-26T06:25:30.882Z,17.07
2019-06-26T06:26:35.048Z,16.07
2019-06-26T06:27:47.825Z,16.93
2019-06-26T06:28:51.121Z,15.90
2019-06-26T06:29:55.876Z,15.15
2019-06-26T06:31:01.524Z,17.57
2019-06-26T06:32:08.970Z,17.82
2019-06-26T06:33:13.123Z,15.95
2019-06-26T06:34:19.409Z,15.32
2019-06-26T06:35:28.844Z,15.63
2019-06-26T06:36:33.589Z,16.23
2019-06-26T06:37:37.831Z,16.75
2019-06-26T06:38:42.269Z,15.75
2019-06-26T06:39:46.395Z,15.75
2019-06-26T06:40:51.148Z,16.35
2019-06-26T06:41:55.300Z,15.90
2019-06-26T06:43:00.236Z,14.45
2019-06-26T06:44:04.497Z,15.35
2019-06-26T06:45:14.438Z,18.55
2019-06-26T06:46:18.741Z,15.45
2019-06-26T06:47:28.768Z,15.63
2019-06-26T06:48:33.073Z,15.35
2019-06-26T06:49:37.943Z,14.65
2019-06-26T06:50:43.530Z,18.23
2019-06-26T06:51:48.207Z,15.85
2019-06-26T06:52:52.368Z,15.38
2019-06-26T06:54:00.525Z,15.00
2019-06-26T06:55:10.699Z,14.65
2019-06-26T06:56:14.497Z,15.35
2019-06-26T06:57:18.757Z,17.62
2019-06-26T06:58:24.974Z,16.00
2019-06-26T06:59:29.133Z,15.98
2019-06-26T07:00:38.687Z,17.37
2019-06-26T07:01:42.845Z,20.97
2019-06-26T07:02:47.638Z,16.37
2019-06-26T07:03:51.738Z,17.02
2019-06-26T07:04:56.439Z,15.83
2019-06-26T07:06:00.566Z,15.70
2019-06-26T07:07:05.394Z,16.07
2019-06-26T07:08:09.727Z,15.68
2019-06-26T07:09:14.402Z,15.70
2019-06-26T07:10:19.707Z,15.13
2019-06-26T07:11:24.565Z,16.85
2019-06-26T07:12:28.804Z,16.57
2019-06-26T07:13:33.653Z,16.35
2019-06-26T07:14:37.741Z,16.80
2019-06-26T07:15:42.500Z,17.77
2019-06-26T07:16:46.548Z,18.45
2019-06-26T07:17:51.321Z,16.50
2019-06-26T07:18:55.455Z,16.85
2019-06-26T07:20:00.118Z,17.40
2019-06-26T07:21:05.503Z,17.90
2019-06-26T07:22:10.234Z,17.23
2019-06-26T07:23:14.375Z,16.90
2019-06-26T07:24:19.071Z,16.70
2019-06-26T07:25:24.153Z,20.43
2019-06-26T07:26:28.997Z,18.50
2019-06-26T07:27:33.109Z,18.12
2019-06-26T07:28:37.889Z,16.80
2019-06-26T07:29:42.062Z,16.60
2019-06-26T07:30:49.240Z,17.30
2019-06-26T07:31:52.622Z,16.87
2019-06-26T07:32:57.367Z,16.80
2019-06-26T07:34:01.853Z,16.27
2019-06-26T07:35:07.999Z,17.02
2019-06-26T07:36:12.143Z,17.50
2019-06-26T07:37:16.569Z,17.02
2019-06-26T07:38:20.773Z,17.60
2019-06-26T07:39:25.440Z,17.57
2019-06-26T07:40:32.203Z,17.67
2019-06-26T07:41:36.972Z,17.55
2019-06-26T07:42:41.558Z,15.83
2019-06-26T07:43:46.261Z,16.30
2019-06-26T07:44:50.697Z,16.30
2019-06-26T07:45:55.960Z,18.42
2019-06-26T07:47:00.235Z,18.23
2019-06-26T07:48:05.224Z,17.55
2019-06-26T07:49:09.417Z,18.62
2019-06-26T07:50:14.864Z,18.87
2019-06-26T07:51:19.123Z,19.70
2019-06-26T07:52:23.841Z,17.98
2019-06-26T07:53:30.726Z,18.85
2019-06-26T07:54:35.483Z,16.73
2019-06-26T07:55:42.418Z,17.55
2019-06-26T07:56:47.163Z,17.37
2019-06-26T07:57:53.630Z,17.37
2019-06-26T07:58:58.366Z,16.90
2019-06-26T08:00:02.550Z,17.12
2019-06-26T08:01:07.225Z,17.62
2019-06-26T08:02:12.945Z,17.52
2019-06-26T08:03:19.149Z,17.55
2019-06-26T08:04:24.878Z,17.67
2019-06-26T08:05:29.593Z,17.87
2019-06-26T08:06:33.759Z,17.98
2019-06-26T08:07:38.605Z,18.20
2019-06-26T08:08:42.730Z,17.90
2019-06-26T08:09:47.437Z,18.00
2019-06-26T08:10:51.660Z,17.65
2019-06-26T08:11:56.419Z,17.40
2019-06-26T08:13:00.542Z,18.73
2019-06-26T08:14:06.104Z,18.42
2019-06-26T08:15:10.406Z,18.37
2019-06-26T08:16:15.190Z,18.82
2019-06-26T08:17:19.358Z,18.30
2019-06-26T08:18:24.254Z,17.85
2019-06-26T08:19:28.382Z,18.07
2019-06-26T08:20:49.844Z,18.10
2019-06-26T08:21:40.285Z,18.02
2019-06-26T08:22:45.091Z,19.40
2019-06-26T08:23:49.254Z,17.95
2019-06-26T08:24:53.959Z,16.90
2019-06-26T08:25:58.113Z,17.52
2019-06-26T08:27:02.702Z,18.57
2019-06-26T08:28:41.883Z,17.27
2019-06-26T08:29:56.944Z,17.23
2019-06-26T08:31:07.585Z,18.57
2019-06-26T08:32:14.127Z,18.32
2019-06-26T08:33:18.069Z,18.75
2019-06-26T08:34:22.286Z,18.82
2019-06-26T08:35:28.485Z,19.10
2019-06-26T08:36:32.695Z,17.77
2019-06-26T08:37:39.250Z,18.65
2019-06-26T08:38:45.667Z,18.42
2019-06-26T08:39:52.780Z,18.10
2019-06-26T08:40:59.146Z,18.37
2019-06-26T08:42:12.399Z,17.98
2019-06-26T08:43:16.670Z,17.20
2019-06-26T08:44:26.508Z,17.95
2019-06-26T08:45:32.112Z,19.40
2019-06-26T08:46:36.855Z,18.80
2019-06-26T08:47:41.128Z,18.00
2019-06-26T08:48:45.922Z,17.85
2019-06-26T08:49:50.191Z,17.35
2019-06-26T08:50:55.005Z,18.52
2019-06-26T08:51:59.424Z,18.82
2019-06-26T08:53:04.283Z,18.30
2019-06-26T08:54:10.825Z,17.95
2019-06-26T08:55:18.024Z,17.48
2019-06-26T08:56:22.283Z,17.20
2019-06-26T08:57:26.805Z,17.27
2019-06-26T08:58:36.487Z,17.00
2019-06-26T08:59:41.249Z,17.42
2019-06-26T09:00:45.864Z,16.65
2019-06-26T09:01:52.025Z,18.10
2019-06-26T09:02:56.216Z,16.95
2019-06-26T09:04:03.927Z,16.93
2019-06-26T09:05:08.360Z,17.67
2019-06-26T09:06:13.198Z,17.35
2019-06-26T09:07:24.823Z,17.20
2019-06-26T09:08:32.717Z,16.32
2019-06-26T09:09:37.016Z,16.60
2019-06-26T09:10:44.816Z,16.62
2019-06-26T09:11:47.445Z,17.12
2019-06-26T09:12:53.282Z,16.90
2019-06-26T09:13:57.461Z,16.37
2019-06-26T09:15:03.617Z,17.23
2019-06-26T09:16:07.990Z,16.82
2019-06-26T09:17:17.103Z,16.60
2019-06-26T09:18:35.058Z,17.50
2019-06-26T09:19:30.481Z,17.02
2019-06-26T09:20:40.172Z,17.50
2019-06-26T09:21:44.983Z,16.07
2019-06-26T09:22:49.039Z,17.00
2019-06-26T09:23:56.233Z,16.75
2019-06-26T09:25:00.548Z,17.40
2019-06-26T09:26:06.866Z,17.55
2019-06-26T09:27:14.667Z,16.07
2019-06-26T09:28:17.637Z,16.57
2019-06-26T09:29:23.950Z,16.12
2019-06-26T09:30:32.649Z,16.90
2019-06-26T09:31:36.809Z,17.07
2019-06-26T09:32:41.942Z,16.40
2019-06-26T09:33:47.635Z,16.40
2019-06-26T09:34:52.457Z,15.93
2019-06-26T09:35:56.679Z,15.25
2019-06-26T09:37:01.438Z,16.10
2019-06-26T09:38:05.770Z,16.17
2019-06-26T09:39:12.151Z,15.35
2019-06-26T09:40:18.077Z,15.55
2019-06-26T09:41:27.875Z,15.88
2019-06-26T09:42:34.242Z,15.90
2019-06-26T09:43:39.088Z,16.70
2019-06-26T09:44:43.310Z,15.98
2019-06-26T09:45:50.728Z,16.50
2019-06-26T09:46:54.982Z,16.65
2019-06-26T09:47:59.753Z,15.98
2019-06-26T09:49:04.432Z,16.15
2019-06-26T09:50:09.454Z,16.07
2019-06-26T09:51:13.646Z,16.45
2019-06-26T09:52:18.457Z,16.20
2019-06-26T09:53:22.710Z,15.40
2019-06-26T09:54:31.073Z,15.93
2019-06-26T09:55:34.330Z,15.08
2019-06-26T09:56:39.057Z,15.50
2019-06-26T09:57:43.285Z,15.85
2019-06-26T09:58:56.300Z,14.90
2019-06-26T10:00:00.553Z,15.80
2019-06-26T10:01:06.375Z,15.48
2019-06-26T10:02:10.523Z,15.90
2019-06-26T10:03:17.622Z,15.48
2019-06-26T10:04:21.653Z,15.60
2019-06-26T10:05:33.847Z,15.55
2019-06-26T10:06:40.889Z,16.75
2019-06-26T10:07:45.713Z,15.63
2019-06-26T10:08:53.776Z,15.83
2019-06-26T10:10:28.740Z,16.42
2019-06-26T10:11:35.327Z,15.93
2019-06-26T10:12:42.367Z,15.40
2019-06-26T10:13:52.625Z,16.25
2019-06-26T10:14:57.537Z,16.60
2019-06-26T10:16:03.095Z,16.00
2019-06-26T10:17:07.892Z,16.00
2019-06-26T10:18:13.025Z,16.30
2019-06-26T10:19:19.402Z,15.18
2019-06-26T10:20:24.825Z,16.20
2019-06-26T10:21:31.677Z,15.23
2019-06-26T10:22:35.984Z,14.68
2019-06-26T10:23:47.964Z,15.28
2019-06-26T10:24:56.703Z,15.00
2019-06-26T10:26:08.696Z,15.13
2019-06-26T10:27:12.981Z,15.20
2019-06-26T10:28:17.860Z,14.70
2019-06-26T10:29:25.101Z,15.40
2019-06-26T10:30:32.663Z,15.20
2019-06-26T10:31:39.864Z,15.58
2019-06-26T10:32:48.055Z,14.75
2019-06-26T10:33:56.170Z,14.85
2019-06-26T10:35:00.957Z,15.65
2019-06-26T10:36:06.921Z,14.73
2019-06-26T10:37:14.650Z,14.90
2019-06-26T10:38:20.450Z,15.03
2019-06-26T10:39:28.839Z,15.98
2019-06-26T10:40:32.948Z,15.98
2019-06-26T10:41:38.889Z,15.98
2019-06-26T10:42:44.645Z,15.88
2019-06-26T10:43:53.370Z,15.03
2019-06-26T10:45:02.829Z,15.63
2019-06-26T10:46:08.009Z,15.20
2019-06-26T10:47:12.332Z,14.83
2019-06-26T10:48:17.132Z,16.12
2019-06-26T10:49:27.390Z,15.90
2019-06-26T10:51:35.095Z,15.53
2019-06-26T10:52:42.709Z,14.93
2019-06-26T10:53:47.082Z,15.78
2019-06-26T10:54:51.795Z,15.43
2019-06-26T10:55:56.037Z,15.65
2019-06-26T10:57:00.709Z,15.55
2019-06-26T10:58:05.016Z,15.50
2019-06-26T10:59:09.630Z,15.18
2019-06-26T11:00:15.587Z,15.28
2019-06-26T11:01:20.271Z,15.30
2019-06-26T11:02:25.984Z,15.60
2019-06-26T11:03:30.651Z,15.55
2019-06-26T11:04:34.752Z,15.85
2019-06-26T11:05:41.968Z,15.72
2019-06-26T11:06:45.312Z,15.70
2019-06-26T11:07:51.421Z,15.55
2019-06-26T11:08:55.692Z,14.90
2019-06-26T11:10:00.505Z,15.70
2019-06-26T11:11:04.750Z,15.95
2019-06-26T11:12:12.496Z,15.60
2019-06-26T11:13:17.951Z,15.35
2019-06-26T11:14:22.633Z,15.65
2019-06-26T11:15:26.956Z,14.78
2019-06-26T11:16:35.353Z,15.32
2019-06-26T11:17:42.626Z,15.75
2019-06-26T11:18:47.405Z,17.60
2019-06-26T11:19:55.687Z,15.85
2019-06-26T11:21:00.628Z,15.95
2019-06-26T11:22:04.992Z,15.95
2019-06-26T11:23:09.751Z,15.48
2019-06-26T11:24:15.451Z,16.48
2019-06-26T11:25:21.812Z,15.53
2019-06-26T11:26:30.322Z,15.50
2019-06-26T11:27:37.054Z,15.48
2019-06-26T11:28:41.215Z,16.25
2019-06-26T11:29:48.872Z,16.67
2019-06-26T11:30:55.969Z,15.75
2019-06-26T11:32:03.489Z,16.17
2019-06-26T11:33:07.701Z,15.20
2019-06-26T11:34:12.409Z,15.25
2019-06-26T11:35:18.197Z,15.75
2019-06-26T11:36:22.919Z,15.45
2019-06-26T11:37:27.245Z,15.58
2019-06-26T11:38:32.064Z,15.13
2019-06-26T11:39:42.287Z,15.65
2019-06-26T11:42:32.681Z,15.15
2019-06-26T11:43:37.299Z,16.02
2019-06-26T11:44:41.507Z,16.57
2019-06-26T11:45:46.339Z,15.43
2019-06-26T11:46:50.635Z,16.23
2019-06-26T11:47:55.341Z,16.48
2019-06-26T11:49:00.195Z,16.73
2019-06-26T11:50:07.965Z,16.87
2019-06-26T11:51:12.122Z,16.02
2019-06-26T11:52:20.154Z,16.65
2019-06-26T11:53:24.264Z,16.57
2019-06-26T11:54:28.981Z,17.00
2019-06-26T11:55:33.297Z,15.75
2019-06-26T11:56:40.921Z,16.55
2019-06-26T11:57:45.175Z,15.65
2019-06-26T11:58:50.029Z,15.70
2019-06-26T11:59:54.267Z,16.15
2019-06-26T12:00:59.057Z,15.68
2019-06-26T12:02:03.284Z,14.87
2019-06-26T12:03:13.421Z,14.60
2019-06-26T12:04:17.776Z,14.33
2019-06-26T12:05:22.702Z,14.68
2019-06-26T12:06:27.481Z,14.50
2019-06-26T12:07:37.720Z,14.65
2019-06-26T12:08:43.089Z,14.93
2019-06-26T12:09:47.867Z,14.18
2019-06-26T12:10:56.568Z,14.63
2019-06-26T12:12:01.561Z,14.53
2019-06-26T12:13:05.862Z,14.55
2019-06-26T12:14:10.655Z,14.53
2019-06-26T12:15:16.808Z,13.75
2019-06-26T12:16:24.276Z,15.05
2019-06-26T12:17:28.416Z,14.33
2019-06-26T12:18:35.856Z,13.15
2019-06-26T12:19:41.099Z,13.50
2019-06-26T12:20:46.785Z,12.93
2019-06-26T12:21:50.944Z,13.22
2019-06-26T12:23:02.991Z,13.50
2019-06-26T12:25:33.662Z,12.80
2019-06-26T12:26:40.806Z,13.95
2019-06-26T12:27:45.646Z,12.90
2019-06-26T12:29:24.464Z,12.82
2019-06-26T12:30:32.013Z,13.58
2019-06-26T12:31:36.172Z,13.58
2019-06-26T12:33:01.165Z,13.08
2019-06-26T12:33:53.873Z,13.60
2019-06-26T12:34:58.645Z,13.50
2019-06-26T12:36:02.955Z,13.62
2019-06-26T12:37:07.828Z,13.88
2019-06-26T12:38:12.032Z,13.95
2019-06-26T12:39:16.741Z,14.30
2019-06-26T12:40:21.266Z,14.13
2019-06-26T12:41:34.484Z,16.57
2019-06-26T12:42:38.794Z,15.20
2019-06-26T12:43:43.725Z,15.28
2019-06-26T12:44:54.480Z,13.83
2019-06-26T12:45:54.480Z,13.70
2019-06-26T12:46:58.736Z,13.40
2019-06-26T12:48:03.594Z,14.25
2019-06-26T12:49:10.872Z,14.93
2019-06-26T12:50:34.170Z,14.13
2019-06-26T12:51:25.085Z,14.98
2019-06-26T12:52:29.945Z,14.63
2019-06-26T12:53:34.265Z,14.60
2019-06-26T12:54:38.996Z,14.70
2019-06-26T12:55:43.205Z,14.53
2019-06-26T12:56:48.011Z,14.50
2019-06-26T12:57:52.302Z,13.70
2019-06-26T12:59:00.282Z,14.20
2019-06-26T13:00:07.413Z,13.83
2019-06-26T13:01:12.214Z,13.58
2019-06-26T13:02:16.396Z,14.23
2019-06-26T13:03:21.197Z,15.43
2019-06-26T13:04:25.380Z,15.30
2019-06-26T13:05:30.238Z,13.60
2019-06-26T13:06:35.983Z,12.85
2019-06-26T13:08:44.660Z,12.85
2019-06-26T13:09:53.819Z,13.38
2019-06-26T13:10:57.877Z,13.80
2019-06-26T13:12:02.695Z,15.88
2019-06-26T13:13:07.002Z,13.13
2019-06-26T13:14:11.785Z,12.45
2019-06-26T13:15:16.100Z,12.78
2019-06-26T13:16:21.004Z,13.10
2019-06-26T13:17:25.246Z,13.30
2019-06-26T13:18:31.052Z,12.50
2019-06-26T13:19:35.254Z,12.90
2019-06-26T13:20:52.137Z,12.70
2019-06-26T13:21:50.890Z,14.35
2019-06-26T13:22:54.956Z,16.75
2019-06-26T13:24:00.615Z,12.78
2019-06-26T13:25:09.158Z,12.05
2019-06-26T13:26:14.832Z,12.07
2019-06-26T13:27:29.068Z,11.73
2019-06-26T13:28:28.474Z,12.45
2019-06-26T13:29:35.914Z,13.32
2019-06-26T13:30:40.170Z,11.63
2019-06-26T13:31:44.864Z,12.58
2019-06-26T13:32:50.632Z,12.43
2019-06-26T13:33:57.468Z,13.53
2019-06-26T13:35:05.620Z,12.28
2019-06-26T13:36:11.515Z,15.13
2019-06-26T13:37:15.386Z,13.30
2019-06-26T13:38:21.440Z,12.15
2019-06-26T13:39:25.587Z,12.18
2019-06-26T13:40:30.355Z,12.35
2019-06-26T13:41:39.989Z,11.35
2019-06-26T13:42:45.104Z,12.35
2019-06-26T13:43:50.798Z,11.22
2019-06-26T13:44:55.516Z,10.43
2019-06-26T13:45:59.639Z,10.40
2019-06-26T13:47:04.412Z,11.70
2019-06-26T13:48:08.626Z,10.50
2019-06-26T13:49:16.416Z,10.35
2019-06-26T13:50:19.646Z,10.68
2019-06-26T13:51:24.373Z,10.80
2019-06-26T13:52:28.489Z,10.28
2019-06-26T13:53:33.258Z,10.50
2019-06-26T13:54:37.473Z,9.93
2019-06-26T13:55:42.980Z,11.05
2019-06-26T13:56:47.150Z,11.93
2019-06-26T13:57:51.809Z,10.43
2019-06-26T13:58:59.038Z,10.15
2019-06-26T14:00:05.534Z,10.80
2019-06-26T14:01:09.710Z,9.60
2019-06-26T14:02:14.524Z,10.15
2019-06-26T14:03:18.599Z,10.03
2019-06-26T14:04:23.341Z,13.18
2019-06-26T14:05:29.552Z,10.40
2019-06-26T14:06:33.964Z,10.05
2019-06-26T14:07:38.347Z,10.00
2019-06-26T14:08:43.046Z,9.55
2019-06-26T14:09:47.146Z,11.50
2019-06-26T14:10:51.852Z,9.80
2019-06-26T14:11:57.082Z,10.03
2019-06-26T14:13:01.686Z,10.85